sensor_id;sensor_type;location;lat;lon;timestamp;P1;durP1;ratioP1;P2;durP2;ratioP2
34064;SDS011;20339;49.754;20.158;2024-03-06T00:00:56;38.40;;;26.30;;
34064;SDS011;20339;49.754;20.158;2024-03-06T00:03:50;38.90;;;27.00;;
34064;SDS011;20339;49.754;20.158;2024-03-06T00:06:21;40.80;;;27.70;;
34064;SDS011;20339;49.754;20.158;2024-03-06T00:08:57;38.10;;;25.70;;
34064;SDS011;20339;49.754;20.158;2024-03-06T00:11:33;38.60;;;26.40;;
34064;SDS011;20339;49.754;20.158;2024-03-06T00:14:06;37.50;;;25.00;;
34064;SDS011;20339;49.754;20.158;2024-03-06T00:16:43;41.50;;;27.10;;
34064;SDS011;20339;49.754;20.158;2024-03-06T00:19:18;38.10;;;26.10;;
34064;SDS011;20339;49.754;20.158;2024-03-06T00:21:52;40.90;;;27.10;;
34064;SDS011;20339;49.754;20.158;2024-03-06T00:24:27;42.70;;;29.40;;
34064;SDS011;20339;49.754;20.158;2024-03-06T00:27:01;44.90;;;30.20;;
34064;SDS011;20339;49.754;20.158;2024-03-06T00:29:34;44.40;;;31.70;;
34064;SDS011;20339;49.754;20.158;2024-03-06T00:32:06;41.10;;;28.20;;
34064;SDS011;20339;49.754;20.158;2024-03-06T00:34:37;43.20;;;29.20;;
34064;SDS011;20339;49.754;20.158;2024-03-06T00:37:11;43.10;;;28.80;;
34064;SDS011;20339;49.754;20.158;2024-03-06T00:39:44;41.80;;;28.00;;
34064;SDS011;20339;49.754;20.158;2024-03-06T00:42:18;45.60;;;29.70;;
34064;SDS011;20339;49.754;20.158;2024-03-06T00:44:52;44.20;;;29.70;;
34064;SDS011;20339;49.754;20.158;2024-03-06T00:47:23;47.80;;;32.50;;
34064;SDS011;20339;49.754;20.158;2024-03-06T00:49:59;48.50;;;32.50;;
34064;SDS011;20339;49.754;20.158;2024-03-06T00:52:30;51.80;;;32.80;;
34064;SDS011;20339;49.754;20.158;2024-03-06T00:55:02;44.50;;;30.00;;
34064;SDS011;20339;49.754;20.158;2024-03-06T00:57:35;48.00;;;30.60;;
34064;SDS011;20339;49.754;20.158;2024-03-06T01:00:19;41.50;;;28.10;;
34064;SDS011;20339;49.754;20.158;2024-03-06T01:02:51;44.40;;;30.20;;
34064;SDS011;20339;49.754;20.158;2024-03-06T01:05:24;47.50;;;29.80;;
34064;SDS011;20339;49.754;20.158;2024-03-06T01:08:02;47.50;;;32.50;;
34064;SDS011;20339;49.754;20.158;2024-03-06T01:10:34;50.00;;;32.20;;
34064;SDS011;20339;49.754;20.158;2024-03-06T01:13:05;44.00;;;28.70;;
34064;SDS011;20339;49.754;20.158;2024-03-06T01:15:38;43.80;;;27.80;;
34064;SDS011;20339;49.754;20.158;2024-03-06T01:18:15;44.70;;;28.80;;
34064;SDS011;20339;49.754;20.158;2024-03-06T01:20:48;42.50;;;28.20;;
34064;SDS011;20339;49.754;20.158;2024-03-06T01:23:22;41.70;;;27.20;;
34064;SDS011;20339;49.754;20.158;2024-03-06T01:25:58;45.80;;;28.30;;
34064;SDS011;20339;49.754;20.158;2024-03-06T01:28:32;47.70;;;30.30;;
34064;SDS011;20339;49.754;20.158;2024-03-06T01:31:06;45.60;;;27.90;;
34064;SDS011;20339;49.754;20.158;2024-03-06T01:33:39;37.90;;;25.40;;
34064;SDS011;20339;49.754;20.158;2024-03-06T01:36:13;42.20;;;26.10;;
34064;SDS011;20339;49.754;20.158;2024-03-06T01:38:47;38.10;;;25.50;;
34064;SDS011;20339;49.754;20.158;2024-03-06T01:41:18;43.40;;;27.90;;
34064;SDS011;20339;49.754;20.158;2024-03-06T01:43:53;45.90;;;26.80;;
34064;SDS011;20339;49.754;20.158;2024-03-06T01:46:26;41.30;;;25.70;;
34064;SDS011;20339;49.754;20.158;2024-03-06T01:49:02;37.80;;;25.20;;
34064;SDS011;20339;49.754;20.158;2024-03-06T01:51:36;39.40;;;25.70;;
34064;SDS011;20339;49.754;20.158;2024-03-06T01:54:10;38.10;;;24.50;;
34064;SDS011;20339;49.754;20.158;2024-03-06T01:56:44;40.90;;;25.30;;
34064;SDS011;20339;49.754;20.158;2024-03-06T01:59:19;39.60;;;25.30;;
34064;SDS011;20339;49.754;20.158;2024-03-06T02:01:55;42.60;;;26.00;;
34064;SDS011;20339;49.754;20.158;2024-03-06T02:04:29;43.00;;;25.70;;
34064;SDS011;20339;49.754;20.158;2024-03-06T02:07:02;45.50;;;27.80;;
34064;SDS011;20339;49.754;20.158;2024-03-06T02:09:40;43.10;;;28.40;;
34064;SDS011;20339;49.754;20.158;2024-03-06T02:12:14;42.00;;;27.20;;
34064;SDS011;20339;49.754;20.158;2024-03-06T02:14:48;43.70;;;26.00;;
34064;SDS011;20339;49.754;20.158;2024-03-06T02:17:19;40.20;;;26.10;;
34064;SDS011;20339;49.754;20.158;2024-03-06T02:19:56;39.30;;;24.50;;
34064;SDS011;20339;49.754;20.158;2024-03-06T02:22:36;36.30;;;23.20;;
34064;SDS011;20339;49.754;20.158;2024-03-06T02:25:07;40.40;;;25.80;;
34064;SDS011;20339;49.754;20.158;2024-03-06T02:27:40;40.40;;;25.60;;
34064;SDS011;20339;49.754;20.158;2024-03-06T02:30:14;41.10;;;23.70;;
34064;SDS011;20339;49.754;20.158;2024-03-06T02:32:51;40.70;;;24.50;;
34064;SDS011;20339;49.754;20.158;2024-03-06T02:35:22;36.50;;;23.70;;
34064;SDS011;20339;49.754;20.158;2024-03-06T02:37:56;38.20;;;24.00;;
34064;SDS011;20339;49.754;20.158;2024-03-06T02:40:29;39.50;;;25.20;;
34064;SDS011;20339;49.754;20.158;2024-03-06T02:43:07;40.60;;;24.60;;
34064;SDS011;20339;49.754;20.158;2024-03-06T02:45:41;21.60;;;14.40;;
34064;SDS011;20339;49.754;20.158;2024-03-06T02:48:12;17.60;;;11.40;;
34064;SDS011;20339;49.754;20.158;2024-03-06T02:50:46;15.40;;;10.20;;
34064;SDS011;20339;49.754;20.158;2024-03-06T02:53:22;20.80;;;13.10;;
34064;SDS011;20339;49.754;20.158;2024-03-06T02:55:58;20.40;;;14.10;;
34064;SDS011;20339;49.754;20.158;2024-03-06T02:58:33;17.30;;;12.10;;
34064;SDS011;20339;49.754;20.158;2024-03-06T03:01:08;16.10;;;11.00;;
34064;SDS011;20339;49.754;20.158;2024-03-06T03:03:41;16.60;;;12.00;;
34064;SDS011;20339;49.754;20.158;2024-03-06T03:06:15;17.50;;;11.50;;
34064;SDS011;20339;49.754;20.158;2024-03-06T03:08:46;19.10;;;13.10;;
34064;SDS011;20339;49.754;20.158;2024-03-06T03:11:20;20.80;;;14.30;;
34064;SDS011;20339;49.754;20.158;2024-03-06T03:13:50;22.80;;;14.50;;
34064;SDS011;20339;49.754;20.158;2024-03-06T03:16:24;23.90;;;15.80;;
34064;SDS011;20339;49.754;20.158;2024-03-06T03:19:00;28.50;;;19.00;;
34064;SDS011;20339;49.754;20.158;2024-03-06T03:21:38;25.60;;;17.80;;
34064;SDS011;20339;49.754;20.158;2024-03-06T03:24:10;21.20;;;14.70;;
34064;SDS011;20339;49.754;20.158;2024-03-06T03:26:44;22.00;;;15.10;;
34064;SDS011;20339;49.754;20.158;2024-03-06T03:29:15;21.60;;;15.00;;
34064;SDS011;20339;49.754;20.158;2024-03-06T03:31:49;22.80;;;14.00;;
34064;SDS011;20339;49.754;20.158;2024-03-06T03:34:23;18.80;;;12.70;;
34064;SDS011;20339;49.754;20.158;2024-03-06T03:36:57;16.90;;;10.30;;
34064;SDS011;20339;49.754;20.158;2024-03-06T03:39:31;16.00;;;10.60;;
34064;SDS011;20339;49.754;20.158;2024-03-06T03:42:02;17.50;;;11.40;;
34064;SDS011;20339;49.754;20.158;2024-03-06T03:44:36;15.10;;;11.00;;
34064;SDS011;20339;49.754;20.158;2024-03-06T03:47:10;20.60;;;13.00;;
34064;SDS011;20339;49.754;20.158;2024-03-06T03:49:41;18.80;;;12.10;;
34064;SDS011;20339;49.754;20.158;2024-03-06T03:52:13;20.90;;;13.40;;
34064;SDS011;20339;49.754;20.158;2024-03-06T03:54:45;17.80;;;12.90;;
34064;SDS011;20339;49.754;20.158;2024-03-06T03:57:18;18.00;;;11.70;;
34064;SDS011;20339;49.754;20.158;2024-03-06T03:59:51;19.00;;;12.10;;
34064;SDS011;20339;49.754;20.158;2024-03-06T04:02:25;19.00;;;12.10;;
34064;SDS011;20339;49.754;20.158;2024-03-06T04:04:56;19.90;;;12.90;;
34064;SDS011;20339;49.754;20.158;2024-03-06T04:07:27;25.50;;;16.20;;
34064;SDS011;20339;49.754;20.158;2024-03-06T04:10:04;28.30;;;17.20;;
34064;SDS011;20339;49.754;20.158;2024-03-06T04:12:44;27.20;;;17.60;;
34064;SDS011;20339;49.754;20.158;2024-03-06T04:15:18;33.10;;;19.00;;
34064;SDS011;20339;49.754;20.158;2024-03-06T04:17:51;26.80;;;17.30;;
34064;SDS011;20339;49.754;20.158;2024-03-06T04:20:25;31.60;;;18.40;;
34064;SDS011;20339;49.754;20.158;2024-03-06T04:22:56;33.80;;;21.00;;
34064;SDS011;20339;49.754;20.158;2024-03-06T04:25:32;31.50;;;18.10;;
34064;SDS011;20339;49.754;20.158;2024-03-06T04:28:04;32.90;;;18.70;;
34064;SDS011;20339;49.754;20.158;2024-03-06T04:30:39;37.90;;;20.50;;
34064;SDS011;20339;49.754;20.158;2024-03-06T04:33:10;35.80;;;20.00;;
34064;SDS011;20339;49.754;20.158;2024-03-06T04:35:43;34.90;;;19.30;;
34064;SDS011;20339;49.754;20.158;2024-03-06T04:38:14;37.30;;;19.70;;
34064;SDS011;20339;49.754;20.158;2024-03-06T04:40:45;30.90;;;18.20;;
34064;SDS011;20339;49.754;20.158;2024-03-06T04:43:19;35.60;;;19.70;;
34064;SDS011;20339;49.754;20.158;2024-03-06T04:45:52;41.30;;;21.00;;
34064;SDS011;20339;49.754;20.158;2024-03-06T04:48:25;34.90;;;19.80;;
34064;SDS011;20339;49.754;20.158;2024-03-06T04:50:58;31.90;;;19.40;;
34064;SDS011;20339;49.754;20.158;2024-03-06T04:53:31;32.40;;;19.00;;
34064;SDS011;20339;49.754;20.158;2024-03-06T04:56:02;30.00;;;19.70;;
34064;SDS011;20339;49.754;20.158;2024-03-06T04:58:35;28.40;;;16.70;;
34064;SDS011;20339;49.754;20.158;2024-03-06T05:01:11;28.30;;;17.10;;
34064;SDS011;20339;49.754;20.158;2024-03-06T05:03:45;27.50;;;15.90;;
34064;SDS011;20339;49.754;20.158;2024-03-06T05:06:20;27.50;;;16.50;;
34064;SDS011;20339;49.754;20.158;2024-03-06T05:08:54;35.10;;;21.80;;
34064;SDS011;20339;49.754;20.158;2024-03-06T05:11:25;29.20;;;20.10;;
34064;SDS011;20339;49.754;20.158;2024-03-06T05:13:58;45.00;;;27.80;;
34064;SDS011;20339;49.754;20.158;2024-03-06T05:16:35;35.50;;;21.60;;
34064;SDS011;20339;49.754;20.158;2024-03-06T05:19:09;32.70;;;21.20;;
34064;SDS011;20339;49.754;20.158;2024-03-06T05:21:40;33.20;;;21.10;;
34064;SDS011;20339;49.754;20.158;2024-03-06T05:24:14;29.60;;;19.10;;
34064;SDS011;20339;49.754;20.158;2024-03-06T05:26:45;31.60;;;19.70;;
34064;SDS011;20339;49.754;20.158;2024-03-06T05:29:16;29.60;;;19.80;;
34064;SDS011;20339;49.754;20.158;2024-03-06T05:31:50;33.60;;;20.70;;
34064;SDS011;20339;49.754;20.158;2024-03-06T05:34:21;24.50;;;17.30;;
34064;SDS011;20339;49.754;20.158;2024-03-06T05:36:54;27.50;;;17.70;;
34064;SDS011;20339;49.754;20.158;2024-03-06T05:39:25;23.50;;;16.20;;
34064;SDS011;20339;49.754;20.158;2024-03-06T05:42:01;20.20;;;13.40;;
34064;SDS011;20339;49.754;20.158;2024-03-06T05:44:33;18.00;;;12.40;;
34064;SDS011;20339;49.754;20.158;2024-03-06T05:47:06;21.10;;;14.10;;
34064;SDS011;20339;49.754;20.158;2024-03-06T05:49:39;21.10;;;13.80;;
34064;SDS011;20339;49.754;20.158;2024-03-06T05:52:11;25.20;;;16.50;;
34064;SDS011;20339;49.754;20.158;2024-03-06T05:54:42;27.90;;;19.20;;
34064;SDS011;20339;49.754;20.158;2024-03-06T05:57:18;30.40;;;20.20;;
34064;SDS011;20339;49.754;20.158;2024-03-06T05:59:49;28.30;;;18.20;;
34064;SDS011;20339;49.754;20.158;2024-03-06T06:02:21;20.90;;;13.80;;
34064;SDS011;20339;49.754;20.158;2024-03-06T06:04:58;20.90;;;13.50;;
34064;SDS011;20339;49.754;20.158;2024-03-06T06:07:30;21.50;;;14.80;;
34064;SDS011;20339;49.754;20.158;2024-03-06T06:10:03;18.20;;;13.00;;
34064;SDS011;20339;49.754;20.158;2024-03-06T06:12:37;24.20;;;15.40;;
34064;SDS011;20339;49.754;20.158;2024-03-06T06:15:10;31.70;;;20.80;;
34064;SDS011;20339;49.754;20.158;2024-03-06T06:17:51;35.40;;;21.60;;
34064;SDS011;20339;49.754;20.158;2024-03-06T06:20:22;31.80;;;19.60;;
34064;SDS011;20339;49.754;20.158;2024-03-06T06:22:59;30.00;;;19.10;;
34064;SDS011;20339;49.754;20.158;2024-03-06T06:25:30;31.40;;;19.40;;
34064;SDS011;20339;49.754;20.158;2024-03-06T06:28:01;31.70;;;20.60;;
34064;SDS011;20339;49.754;20.158;2024-03-06T06:30:32;29.20;;;19.70;;
34064;SDS011;20339;49.754;20.158;2024-03-06T06:33:07;30.80;;;20.00;;
34064;SDS011;20339;49.754;20.158;2024-03-06T06:35:40;27.30;;;18.90;;
34064;SDS011;20339;49.754;20.158;2024-03-06T06:38:14;27.80;;;18.50;;
34064;SDS011;20339;49.754;20.158;2024-03-06T06:40:48;28.90;;;19.20;;
34064;SDS011;20339;49.754;20.158;2024-03-06T06:43:20;29.10;;;18.60;;
34064;SDS011;20339;49.754;20.158;2024-03-06T06:45:52;31.30;;;19.20;;
34064;SDS011;20339;49.754;20.158;2024-03-06T06:48:26;27.00;;;16.60;;
34064;SDS011;20339;49.754;20.158;2024-03-06T06:50:57;28.50;;;18.10;;
34064;SDS011;20339;49.754;20.158;2024-03-06T06:53:30;26.10;;;18.30;;
34064;SDS011;20339;49.754;20.158;2024-03-06T06:56:03;26.80;;;18.40;;
34064;SDS011;20339;49.754;20.158;2024-03-06T06:58:41;23.50;;;15.30;;
34064;SDS011;20339;49.754;20.158;2024-03-06T07:01:16;22.20;;;15.60;;
34064;SDS011;20339;49.754;20.158;2024-03-06T07:03:53;18.90;;;13.50;;
34064;SDS011;20339;49.754;20.158;2024-03-06T07:06:26;22.00;;;15.70;;
34064;SDS011;20339;49.754;20.158;2024-03-06T07:08:57;21.60;;;15.70;;
34064;SDS011;20339;49.754;20.158;2024-03-06T07:11:29;22.10;;;15.50;;
34064;SDS011;20339;49.754;20.158;2024-03-06T07:14:00;25.70;;;15.80;;
34064;SDS011;20339;49.754;20.158;2024-03-06T07:16:33;22.00;;;15.00;;
34064;SDS011;20339;49.754;20.158;2024-03-06T07:19:13;21.60;;;14.70;;
34064;SDS011;20339;49.754;20.158;2024-03-06T07:21:46;21.80;;;15.50;;
34064;SDS011;20339;49.754;20.158;2024-03-06T07:24:22;22.50;;;15.30;;
34064;SDS011;20339;49.754;20.158;2024-03-06T07:27:01;21.10;;;15.80;;
34064;SDS011;20339;49.754;20.158;2024-03-06T07:29:32;23.00;;;16.30;;
34064;SDS011;20339;49.754;20.158;2024-03-06T07:32:11;25.40;;;18.10;;
34064;SDS011;20339;49.754;20.158;2024-03-06T07:34:44;25.50;;;17.00;;
34064;SDS011;20339;49.754;20.158;2024-03-06T07:37:15;23.20;;;16.70;;
34064;SDS011;20339;49.754;20.158;2024-03-06T07:39:49;28.60;;;20.40;;
34064;SDS011;20339;49.754;20.158;2024-03-06T07:42:20;24.30;;;17.60;;
34064;SDS011;20339;49.754;20.158;2024-03-06T07:44:52;23.20;;;17.40;;
34064;SDS011;20339;49.754;20.158;2024-03-06T07:47:23;24.10;;;17.50;;
34064;SDS011;20339;49.754;20.158;2024-03-06T07:49:54;22.70;;;16.70;;
34064;SDS011;20339;49.754;20.158;2024-03-06T07:52:25;21.10;;;16.40;;
34064;SDS011;20339;49.754;20.158;2024-03-06T07:55:03;23.70;;;16.50;;
34064;SDS011;20339;49.754;20.158;2024-03-06T07:57:35;25.00;;;18.60;;
34064;SDS011;20339;49.754;20.158;2024-03-06T08:00:09;24.40;;;16.80;;
34064;SDS011;20339;49.754;20.158;2024-03-06T08:02:42;23.20;;;16.20;;
34064;SDS011;20339;49.754;20.158;2024-03-06T08:05:19;22.70;;;15.60;;
34064;SDS011;20339;49.754;20.158;2024-03-06T08:07:49;21.40;;;15.80;;
34064;SDS011;20339;49.754;20.158;2024-03-06T08:10:19;25.10;;;16.70;;
34064;SDS011;20339;49.754;20.158;2024-03-06T08:12:49;23.70;;;16.80;;
34064;SDS011;20339;49.754;20.158;2024-03-06T08:15:22;24.80;;;17.40;;
34064;SDS011;20339;49.754;20.158;2024-03-06T08:17:54;23.40;;;16.00;;
34064;SDS011;20339;49.754;20.158;2024-03-06T08:20:24;22.30;;;16.10;;
34064;SDS011;20339;49.754;20.158;2024-03-06T08:22:57;21.70;;;15.80;;
34064;SDS011;20339;49.754;20.158;2024-03-06T08:25:34;21.40;;;15.30;;
34064;SDS011;20339;49.754;20.158;2024-03-06T08:28:04;21.90;;;16.80;;
34064;SDS011;20339;49.754;20.158;2024-03-06T08:30:37;21.00;;;16.10;;
34064;SDS011;20339;49.754;20.158;2024-03-06T08:33:07;23.60;;;16.00;;
34064;SDS011;20339;49.754;20.158;2024-03-06T08:35:43;22.70;;;16.20;;
34064;SDS011;20339;49.754;20.158;2024-03-06T08:38:13;23.80;;;16.60;;
34064;SDS011;20339;49.754;20.158;2024-03-06T08:40:45;22.50;;;16.40;;
34064;SDS011;20339;49.754;20.158;2024-03-06T08:43:20;26.80;;;17.60;;
34064;SDS011;20339;49.754;20.158;2024-03-06T08:45:50;22.50;;;16.70;;
34064;SDS011;20339;49.754;20.158;2024-03-06T08:48:20;23.10;;;15.70;;
34064;SDS011;20339;49.754;20.158;2024-03-06T08:50:51;24.50;;;16.60;;
34064;SDS011;20339;49.754;20.158;2024-03-06T08:53:23;22.90;;;16.50;;
34064;SDS011;20339;49.754;20.158;2024-03-06T08:55:53;21.80;;;16.10;;
34064;SDS011;20339;49.754;20.158;2024-03-06T08:58:23;21.10;;;15.90;;
34064;SDS011;20339;49.754;20.158;2024-03-06T09:00:56;20.90;;;15.80;;
34064;SDS011;20339;49.754;20.158;2024-03-06T09:03:26;21.40;;;14.50;;
34064;SDS011;20339;49.754;20.158;2024-03-06T09:05:57;25.00;;;17.10;;
34064;SDS011;20339;49.754;20.158;2024-03-06T09:08:27;22.40;;;14.20;;
34064;SDS011;20339;49.754;20.158;2024-03-06T09:10:58;24.70;;;15.90;;
34064;SDS011;20339;49.754;20.158;2024-03-06T09:13:31;21.00;;;15.00;;
34064;SDS011;20339;49.754;20.158;2024-03-06T09:16:07;22.50;;;16.00;;
34064;SDS011;20339;49.754;20.158;2024-03-06T09:18:40;22.00;;;15.90;;
34064;SDS011;20339;49.754;20.158;2024-03-06T09:21:12;24.50;;;16.80;;
34064;SDS011;20339;49.754;20.158;2024-03-06T09:23:44;20.90;;;15.60;;
34064;SDS011;20339;49.754;20.158;2024-03-06T09:26:20;19.50;;;14.60;;
34064;SDS011;20339;49.754;20.158;2024-03-06T09:28:52;20.40;;;14.00;;
34064;SDS011;20339;49.754;20.158;2024-03-06T09:31:24;19.60;;;13.50;;
34064;SDS011;20339;49.754;20.158;2024-03-06T09:33:59;17.70;;;13.40;;
34064;SDS011;20339;49.754;20.158;2024-03-06T09:36:33;18.90;;;12.80;;
34064;SDS011;20339;49.754;20.158;2024-03-06T09:39:11;20.60;;;14.20;;
34064;SDS011;20339;49.754;20.158;2024-03-06T09:41:43;17.70;;;12.80;;
34064;SDS011;20339;49.754;20.158;2024-03-06T09:44:14;18.10;;;13.10;;
34064;SDS011;20339;49.754;20.158;2024-03-06T09:46:48;21.10;;;15.10;;
34064;SDS011;20339;49.754;20.158;2024-03-06T09:49:21;20.80;;;14.70;;
34064;SDS011;20339;49.754;20.158;2024-03-06T09:51:52;17.40;;;11.80;;
34064;SDS011;20339;49.754;20.158;2024-03-06T09:54:29;17.50;;;12.40;;
34064;SDS011;20339;49.754;20.158;2024-03-06T09:57:02;19.20;;;14.50;;
34064;SDS011;20339;49.754;20.158;2024-03-06T09:59:33;24.10;;;17.50;;
34064;SDS011;20339;49.754;20.158;2024-03-06T10:02:14;23.40;;;15.90;;
34064;SDS011;20339;49.754;20.158;2024-03-06T10:04:59;27.00;;;18.90;;
34064;SDS011;20339;49.754;20.158;2024-03-06T10:07:31;20.40;;;15.60;;
34064;SDS011;20339;49.754;20.158;2024-03-06T10:10:01;23.70;;;16.80;;
34064;SDS011;20339;49.754;20.158;2024-03-06T10:12:32;24.70;;;16.10;;
34064;SDS011;20339;49.754;20.158;2024-03-06T10:15:02;21.20;;;14.70;;
34064;SDS011;20339;49.754;20.158;2024-03-06T10:17:36;22.40;;;15.50;;
34064;SDS011;20339;49.754;20.158;2024-03-06T10:20:17;24.50;;;16.90;;
34064;SDS011;20339;49.754;20.158;2024-03-06T10:22:53;23.70;;;16.80;;
34064;SDS011;20339;49.754;20.158;2024-03-06T10:25:28;24.70;;;18.10;;
34064;SDS011;20339;49.754;20.158;2024-03-06T10:28:12;24.20;;;17.50;;
34064;SDS011;20339;49.754;20.158;2024-03-06T10:30:43;19.50;;;15.00;;
34064;SDS011;20339;49.754;20.158;2024-03-06T10:33:15;22.80;;;16.20;;
34064;SDS011;20339;49.754;20.158;2024-03-06T10:35:49;23.10;;;17.80;;
34064;SDS011;20339;49.754;20.158;2024-03-06T10:38:21;22.60;;;15.90;;
34064;SDS011;20339;49.754;20.158;2024-03-06T10:40:54;21.80;;;15.20;;
34064;SDS011;20339;49.754;20.158;2024-03-06T10:43:26;18.90;;;13.40;;
34064;SDS011;20339;49.754;20.158;2024-03-06T10:46:01;19.00;;;14.20;;
34064;SDS011;20339;49.754;20.158;2024-03-06T10:48:36;19.00;;;14.50;;
34064;SDS011;20339;49.754;20.158;2024-03-06T10:51:14;17.40;;;12.80;;
34064;SDS011;20339;49.754;20.158;2024-03-06T10:53:50;20.60;;;14.90;;
34064;SDS011;20339;49.754;20.158;2024-03-06T10:56:24;18.90;;;12.90;;
34064;SDS011;20339;49.754;20.158;2024-03-06T10:58:57;17.60;;;13.00;;
34064;SDS011;20339;49.754;20.158;2024-03-06T11:01:32;20.70;;;15.10;;
34064;SDS011;20339;49.754;20.158;2024-03-06T11:04:03;23.20;;;17.30;;
34064;SDS011;20339;49.754;20.158;2024-03-06T11:06:34;20.00;;;14.60;;
34064;SDS011;20339;49.754;20.158;2024-03-06T11:09:06;19.40;;;14.50;;
34064;SDS011;20339;49.754;20.158;2024-03-06T11:11:48;17.00;;;13.00;;
34064;SDS011;20339;49.754;20.158;2024-03-06T11:14:20;19.00;;;14.10;;
34064;SDS011;20339;49.754;20.158;2024-03-06T11:17:01;21.70;;;15.70;;
34064;SDS011;20339;49.754;20.158;2024-03-06T11:28:40;19.10;;;14.10;;
34064;SDS011;20339;49.754;20.158;2024-03-06T11:31:17;19.90;;;14.00;;
34064;SDS011;20339;49.754;20.158;2024-03-06T11:33:53;21.50;;;13.60;;
34064;SDS011;20339;49.754;20.158;2024-03-06T11:36:28;21.20;;;14.80;;
34064;SDS011;20339;49.754;20.158;2024-03-06T11:39:04;17.80;;;13.80;;
34064;SDS011;20339;49.754;20.158;2024-03-06T11:41:47;18.60;;;13.80;;
34064;SDS011;20339;49.754;20.158;2024-03-06T11:44:18;18.10;;;13.80;;
34064;SDS011;20339;49.754;20.158;2024-03-06T11:46:56;22.20;;;15.90;;
34064;SDS011;20339;49.754;20.158;2024-03-06T11:49:30;23.10;;;16.90;;
34064;SDS011;20339;49.754;20.158;2024-03-06T11:52:02;21.20;;;14.80;;
34064;SDS011;20339;49.754;20.158;2024-03-06T11:54:36;19.80;;;14.40;;
34064;SDS011;20339;49.754;20.158;2024-03-06T11:57:06;21.90;;;15.30;;
34064;SDS011;20339;49.754;20.158;2024-03-06T11:59:40;22.70;;;15.60;;
34064;SDS011;20339;49.754;20.158;2024-03-06T12:02:11;22.70;;;16.60;;
34064;SDS011;20339;49.754;20.158;2024-03-06T12:04:43;20.20;;;14.20;;
34064;SDS011;20339;49.754;20.158;2024-03-06T12:07:16;21.50;;;15.50;;
34064;SDS011;20339;49.754;20.158;2024-03-06T12:09:48;21.40;;;16.10;;
34064;SDS011;20339;49.754;20.158;2024-03-06T12:12:20;23.60;;;15.90;;
34064;SDS011;20339;49.754;20.158;2024-03-06T12:14:59;20.30;;;14.90;;
34064;SDS011;20339;49.754;20.158;2024-03-06T12:17:41;24.90;;;16.40;;
34064;SDS011;20339;49.754;20.158;2024-03-06T12:20:14;23.30;;;16.70;;
34064;SDS011;20339;49.754;20.158;2024-03-06T12:22:48;22.30;;;16.60;;
34064;SDS011;20339;49.754;20.158;2024-03-06T12:25:24;21.10;;;16.00;;
34064;SDS011;20339;49.754;20.158;2024-03-06T12:27:54;20.90;;;16.00;;
34064;SDS011;20339;49.754;20.158;2024-03-06T12:30:38;21.10;;;15.80;;
34064;SDS011;20339;49.754;20.158;2024-03-06T12:33:11;24.30;;;16.70;;
34064;SDS011;20339;49.754;20.158;2024-03-06T12:35:49;21.70;;;16.20;;
34064;SDS011;20339;49.754;20.158;2024-03-06T12:38:37;21.20;;;14.60;;
34064;SDS011;20339;49.754;20.158;2024-03-06T12:41:11;25.20;;;17.50;;
34064;SDS011;20339;49.754;20.158;2024-03-06T12:43:48;25.30;;;17.30;;
34064;SDS011;20339;49.754;20.158;2024-03-06T12:46:18;23.20;;;16.50;;
34064;SDS011;20339;49.754;20.158;2024-03-06T12:48:53;23.40;;;16.50;;
34064;SDS011;20339;49.754;20.158;2024-03-06T12:51:26;27.10;;;17.50;;
34064;SDS011;20339;49.754;20.158;2024-03-06T12:53:58;24.70;;;17.80;;
34064;SDS011;20339;49.754;20.158;2024-03-06T12:56:32;23.50;;;16.80;;
34064;SDS011;20339;49.754;20.158;2024-03-06T12:59:05;23.50;;;17.10;;
34064;SDS011;20339;49.754;20.158;2024-03-06T13:01:36;27.40;;;19.30;;
34064;SDS011;20339;49.754;20.158;2024-03-06T13:04:16;27.40;;;18.70;;
34064;SDS011;20339;49.754;20.158;2024-03-06T13:06:46;23.20;;;16.20;;
34064;SDS011;20339;49.754;20.158;2024-03-06T13:09:16;22.40;;;15.30;;
34064;SDS011;20339;49.754;20.158;2024-03-06T13:11:53;29.00;;;19.70;;
34064;SDS011;20339;49.754;20.158;2024-03-06T13:14:26;25.00;;;17.00;;
34064;SDS011;20339;49.754;20.158;2024-03-06T13:16:57;21.90;;;15.80;;
34064;SDS011;20339;49.754;20.158;2024-03-06T13:19:30;23.70;;;15.50;;
34064;SDS011;20339;49.754;20.158;2024-03-06T13:22:00;20.50;;;15.10;;
34064;SDS011;20339;49.754;20.158;2024-03-06T13:24:33;23.10;;;16.50;;
34064;SDS011;20339;49.754;20.158;2024-03-06T13:27:05;25.80;;;18.20;;
34064;SDS011;20339;49.754;20.158;2024-03-06T13:29:35;20.10;;;14.70;;
34064;SDS011;20339;49.754;20.158;2024-03-06T13:32:08;24.20;;;15.90;;
34064;SDS011;20339;49.754;20.158;2024-03-06T13:34:39;22.60;;;16.20;;
34064;SDS011;20339;49.754;20.158;2024-03-06T13:37:12;24.60;;;16.30;;
34064;SDS011;20339;49.754;20.158;2024-03-06T13:39:45;20.70;;;14.70;;
34064;SDS011;20339;49.754;20.158;2024-03-06T13:42:15;18.30;;;13.40;;
34064;SDS011;20339;49.754;20.158;2024-03-06T13:44:48;21.70;;;15.40;;
34064;SDS011;20339;49.754;20.158;2024-03-06T13:47:24;20.60;;;15.30;;
34064;SDS011;20339;49.754;20.158;2024-03-06T13:50:00;21.90;;;15.20;;
34064;SDS011;20339;49.754;20.158;2024-03-06T13:52:37;22.00;;;14.60;;
34064;SDS011;20339;49.754;20.158;2024-03-06T13:55:10;22.30;;;14.80;;
34064;SDS011;20339;49.754;20.158;2024-03-06T13:57:45;22.80;;;14.80;;
34064;SDS011;20339;49.754;20.158;2024-03-06T14:00:19;24.00;;;16.40;;
34064;SDS011;20339;49.754;20.158;2024-03-06T14:02:55;24.00;;;16.20;;
34064;SDS011;20339;49.754;20.158;2024-03-06T14:05:27;22.80;;;15.70;;
34064;SDS011;20339;49.754;20.158;2024-03-06T14:07:57;22.90;;;16.80;;
34064;SDS011;20339;49.754;20.158;2024-03-06T14:10:32;23.60;;;17.60;;
34064;SDS011;20339;49.754;20.158;2024-03-06T14:13:06;20.90;;;14.40;;
34064;SDS011;20339;49.754;20.158;2024-03-06T14:15:40;21.50;;;15.00;;
34064;SDS011;20339;49.754;20.158;2024-03-06T14:18:11;20.60;;;14.00;;
34064;SDS011;20339;49.754;20.158;2024-03-06T14:20:42;22.30;;;14.90;;
34064;SDS011;20339;49.754;20.158;2024-03-06T14:23:15;16.70;;;12.40;;
34064;SDS011;20339;49.754;20.158;2024-03-06T14:25:45;16.20;;;12.10;;
34064;SDS011;20339;49.754;20.158;2024-03-06T14:28:15;18.70;;;12.70;;
34064;SDS011;20339;49.754;20.158;2024-03-06T14:30:47;18.30;;;12.20;;
34064;SDS011;20339;49.754;20.158;2024-03-06T14:33:20;16.10;;;11.20;;
34064;SDS011;20339;49.754;20.158;2024-03-06T14:35:52;15.50;;;11.30;;
34064;SDS011;20339;49.754;20.158;2024-03-06T14:38:25;16.50;;;11.70;;
34064;SDS011;20339;49.754;20.158;2024-03-06T14:40:57;17.30;;;11.90;;
34064;SDS011;20339;49.754;20.158;2024-03-06T14:43:27;13.60;;;9.70;;
34064;SDS011;20339;49.754;20.158;2024-03-06T14:45:58;16.60;;;11.40;;
34064;SDS011;20339;49.754;20.158;2024-03-06T14:48:31;16.60;;;12.40;;
34064;SDS011;20339;49.754;20.158;2024-03-06T14:51:02;14.50;;;10.80;;
34064;SDS011;20339;49.754;20.158;2024-03-06T14:53:36;15.10;;;11.90;;